Time;durP1;ratioP1;P1;durP2;ratioP2;P2;SDS_P1;SDS_P2;PMS_P1;PMS_P2;Temp;Humidity;BMP_temperature;BMP_pressure;BME280_temperature;BME280_humidity;BME280_pressure;Samples;Min_cycle;Max_cycle;Signal;HPM_P1;HPM_P2
2022/02/13 00:00:11;;;;;;;31.00;13.90;;;0.30;99.70;;;;;;5070772;28;20439;-66
2022/02/13 00:02:40;;;;;;;29.13;14.00;;;0.20;99.70;;;;;;5070744;28;20465;-65
2022/02/13 00:05:08;;;;;;;32.27;14.23;;;0.30;99.70;;;;;;5070623;28;20443;-66
2022/02/13 00:07:35;;;;;;;28.47;13.60;;;0.20;99.70;;;;;;5070468;28;20525;-65
2022/02/13 00:10:03;;;;;;;29.60;13.20;;;0.20;99.70;;;;;;5070635;28;20446;-66
2022/02/13 00:12:30;;;;;;;30.37;12.90;;;0.20;99.70;;;;;;5070699;28;20533;-65
2022/02/13 00:14:57;;;;;;;29.70;12.80;;;0.10;99.70;;;;;;5070693;28;20447;-66
2022/02/13 00:17:24;;;;;;;23.07;12.00;;;0.10;99.70;;;;;;5073899;28;20915;-66
2022/02/13 00:19:52;;;;;;;30.13;12.87;;;0.20;99.70;;;;;;5074554;28;20445;-66
2022/02/13 00:22:19;;;;;;;28.13;12.10;;;0.20;99.70;;;;;;5074768;28;20462;-66
2022/02/13 00:24:46;;;;;;;25.60;12.33;;;0.10;99.70;;;;;;5074439;28;20526;-64
2022/02/13 00:27:13;;;;;;;26.30;11.90;;;0.20;99.70;;;;;;5074387;28;20463;-66
2022/02/13 00:29:40;;;;;;;29.80;13.07;;;0.10;99.70;;;;;;5074329;28;20449;-66
2022/02/13 00:32:07;;;;;;;30.23;13.63;;;0.20;99.70;;;;;;5074437;28;20459;-66
2022/02/13 00:34:34;;;;;;;28.47;13.90;;;0.30;99.70;;;;;;5074415;28;20449;-65
2022/02/13 00:37:03;;;;;;;26.67;13.63;;;0.30;99.70;;;;;;5073902;28;20478;-66
2022/02/13 00:39:30;;;;;;;30.00;13.00;;;0.30;99.70;;;;;;5074169;28;20542;-65
2022/02/13 00:41:57;;;;;;;27.67;13.03;;;0.20;99.70;;;;;;5074239;28;20442;-65
2022/02/13 00:44:24;;;;;;;29.93;14.30;;;0.10;99.70;;;;;;5074173;28;20457;-65
2022/02/13 00:46:50;;;;;;;31.87;13.20;;;-0.10;99.70;;;;;;5073719;28;20467;-66
2022/02/13 00:49:17;;;;;;;31.00;14.17;;;-0.10;99.70;;;;;;5074012;28;20855;-65
2022/02/13 00:51:44;;;;;;;31.57;13.97;;;0.00;99.70;;;;;;5074010;28;20938;-65
2022/02/13 00:54:12;;;;;;;31.03;14.57;;;-0.10;99.70;;;;;;5074017;28;20447;-66
2022/02/13 00:56:39;;;;;;;28.13;13.37;;;-0.20;99.70;;;;;;5073743;28;20462;-65
2022/02/13 00:59:05;;;;;;;30.30;13.80;;;-0.20;99.70;;;;;;5073865;28;20440;-66
2022/02/13 01:01:32;;;;;;;33.13;14.37;;;-0.40;99.70;;;;;;5073862;28;20822;-65
2022/02/13 01:03:59;;;;;;;29.50;13.27;;;-0.50;99.70;;;;;;5073832;28;20443;-65
2022/02/13 01:06:27;;;;;;;30.57;13.47;;;-0.50;99.70;;;;;;5073509;28;21013;-66
2022/02/13 01:08:54;;;;;;;33.23;13.70;;;-0.30;99.70;;;;;;5073635;28;20479;-66
2022/02/13 01:11:22;;;;;;;30.90;14.97;;;-0.40;99.70;;;;;;5073825;28;20454;-65
2022/02/13 01:13:49;;;;;;;31.80;13.40;;;-0.30;99.70;;;;;;5073688;28;20438;-65
2022/02/13 01:16:16;;;;;;;36.13;14.53;;;-0.40;99.70;;;;;;5072692;28;20459;-65
2022/02/13 01:18:42;;;;;;;28.07;12.60;;;-0.30;99.70;;;;;;5073636;28;20812;-66
2022/02/13 01:21:12;;;;;;;27.60;13.47;;;-0.20;99.70;;;;;;5073628;28;20443;-66
2022/02/13 01:23:39;;;;;;;28.40;13.43;;;-0.20;99.70;;;;;;5073541;28;20542;-66
2022/02/13 01:26:05;;;;;;;28.87;12.90;;;-0.10;99.70;;;;;;5072787;28;20478;-65
2022/02/13 01:28:34;;;;;;;28.53;12.27;;;0.20;99.70;;;;;;5072436;28;20846;-65
2022/02/13 01:31:02;;;;;;;29.77;12.67;;;0.30;99.70;;;;;;5073466;28;20512;-65
2022/02/13 01:33:29;;;;;;;27.07;13.00;;;0.40;99.70;;;;;;5073365;28;20447;-66
2022/02/13 01:35:56;;;;;;;23.50;11.60;;;0.20;99.70;;;;;;5072889;28;20948;-65
2022/02/13 01:38:23;;;;;;;25.73;12.30;;;0.30;99.70;;;;;;5073277;28;20438;-65
2022/02/13 01:40:50;;;;;;;28.60;12.77;;;0.30;99.70;;;;;;5073293;28;20802;-65
2022/02/13 01:43:17;;;;;;;23.97;11.70;;;0.40;99.70;;;;;;5073231;28;20529;-65
2022/02/13 01:45:45;;;;;;;30.77;13.13;;;0.40;99.70;;;;;;5072941;28;20773;-65
2022/02/13 01:48:12;;;;;;;27.30;12.43;;;0.40;99.70;;;;;;5072874;28;20475;-65
2022/02/13 01:50:40;;;;;;;29.87;12.80;;;0.40;99.70;;;;;;5073162;28;20828;-65
2022/02/13 01:53:09;;;;;;;26.60;12.87;;;0.60;99.70;;;;;;5072995;28;20934;-65
2022/02/13 01:55:36;;;;;;;26.77;12.27;;;0.60;99.70;;;;;;5072647;28;20477;-66
2022/02/13 01:58:04;;;;;;;28.40;12.37;;;0.90;99.70;;;;;;5072748;28;20922;-66
2022/02/13 02:00:31;;;;;;;24.73;11.77;;;0.70;99.70;;;;;;5072935;28;20950;-65
2022/02/13 02:02:59;;;;;;;27.80;12.40;;;0.70;99.70;;;;;;5072724;28;20454;-66
2022/02/13 02:05:25;;;;;;;25.30;12.73;;;0.60;99.70;;;;;;5072423;28;20443;-65
2022/02/13 02:07:52;;;;;;;24.10;12.07;;;0.60;99.70;;;;;;5072580;28;20446;-66
2022/02/13 02:10:22;;;;;;;26.23;12.20;;;0.60;99.70;;;;;;5072711;28;20450;-66
2022/02/13 02:12:49;;;;;;;25.53;11.90;;;0.90;99.70;;;;;;5072765;28;20446;-66
2022/02/13 02:15:17;;;;;;;27.00;12.37;;;0.60;99.70;;;;;;5072187;28;20934;-65
2022/02/13 02:17:43;;;;;;;25.53;11.70;;;0.20;99.70;;;;;;5071686;28;20953;-65
2022/02/13 02:20:13;;;;;;;26.53;12.10;;;0.00;99.70;;;;;;5072336;28;20804;-67
2022/02/13 02:22:47;;;;;;;24.60;12.20;;;0.00;99.70;;;;;;5072408;28;20438;-66
2022/02/13 02:25:15;;;;;;;26.60;11.80;;;0.10;99.70;;;;;;5072091;28;20565;-65
2022/02/13 02:27:42;;;;;;;24.60;13.23;;;0.10;99.70;;;;;;5072260;28;20450;-66
2022/02/13 02:30:09;;;;;;;29.23;12.10;;;0.10;99.70;;;;;;5072016;28;21025;-67
2022/02/13 02:32:36;;;;;;;25.80;11.63;;;0.20;99.70;;;;;;5072175;28;20443;-66
2022/02/13 02:35:04;;;;;;;27.10;11.90;;;0.00;99.70;;;;;;5071823;28;20465;-66
2022/02/13 02:37:31;;;;;;;28.43;11.50;;;0.00;99.70;;;;;;5071788;28;20482;-67
2022/02/13 02:39:58;;;;;;;25.77;11.80;;;0.20;99.70;;;;;;5071739;28;20813;-66
2022/02/13 02:42:26;;;;;;;30.53;12.83;;;0.50;99.70;;;;;;5072095;28;20439;-65
2022/02/13 02:44:53;;;;;;;24.40;12.17;;;0.50;99.70;;;;;;5071654;28;20453;-66
2022/02/13 02:47:20;;;;;;;24.23;11.77;;;0.70;99.70;;;;;;5071898;28;20463;-66
2022/02/13 02:49:47;;;;;;;29.40;13.40;;;0.50;99.70;;;;;;5071629;28;20482;-66
2022/02/13 02:52:13;;;;;;;28.97;12.23;;;0.40;99.70;;;;;;5071708;28;20450;-65
2022/02/13 02:54:40;;;;;;;26.23;11.90;;;0.20;99.70;;;;;;5071742;28;20514;-65
2022/02/13 02:57:07;;;;;;;28.13;12.37;;;0.10;99.70;;;;;;5071439;28;20474;-65
2022/02/13 02:59:35;;;;;;;33.83;12.70;;;-0.20;99.70;;;;;;5071579;28;20435;-66
2022/02/13 03:02:02;;;;;;;25.67;12.43;;;-0.20;99.70;;;;;;5071814;28;20451;-65
2022/02/13 03:04:28;;;;;;;28.03;13.07;;;0.00;99.70;;;;;;5071559;28;20439;-66
2022/02/13 03:06:55;;;;;;;29.33;12.37;;;-0.10;99.70;;;;;;5071177;28;20466;-65
2022/02/13 03:09:22;;;;;;;28.53;12.20;;;0.10;99.70;;;;;;5071291;28;20482;-65
2022/02/13 03:11:49;;;;;;;25.90;12.57;;;0.00;99.70;;;;;;5071464;28;20443;-65
2022/02/13 03:14:15;;;;;;;26.83;12.13;;;0.00;99.70;;;;;;5071395;28;20446;-65
2022/02/13 03:16:44;;;;;;;26.13;12.17;;;-0.20;99.70;;;;;;5070788;28;20470;-65
2022/02/13 03:19:11;;;;;;;28.20;11.73;;;-0.30;99.70;;;;;;5071207;28;20873;-65
2022/02/13 03:21:37;;;;;;;30.27;12.47;;;-0.30;99.70;;;;;;5071421;28;20443;-65
2022/02/13 03:24:07;;;;;;;26.50;12.27;;;-0.20;99.70;;;;;;5071367;28;20450;-66
2022/02/13 03:26:34;;;;;;;27.93;12.17;;;-0.20;99.70;;;;;;5070910;28;20466;-65
2022/02/13 03:29:00;;;;;;;28.73;12.80;;;-0.10;99.70;;;;;;5071018;28;20478;-66
2022/02/13 03:31:27;;;;;;;29.50;12.60;;;-0.20;99.70;;;;;;5071258;28;20803;-65
2022/02/13 03:33:56;;;;;;;28.93;12.23;;;-0.20;99.70;;;;;;5071202;28;20443;-65
2022/02/13 03:36:23;;;;;;;27.50;12.43;;;-0.30;99.70;;;;;;5070802;28;20797;-65
2022/02/13 03:38:49;;;;;;;28.97;12.53;;;-0.40;99.70;;;;;;5070917;28;20521;-65
2022/02/13 03:41:16;;;;;;;28.10;12.93;;;-0.50;99.70;;;;;;5071218;28;20443;-65
2022/02/13 03:43:43;;;;;;;29.60;12.43;;;-0.40;99.70;;;;;;5071042;28;20450;-66
2022/02/13 03:46:10;;;;;;;25.60;11.43;;;-0.30;99.70;;;;;;5070618;28;20465;-66
2022/02/13 03:48:36;;;;;;;31.10;13.40;;;-0.20;99.70;;;;;;5070792;28;20482;-65
2022/02/13 03:51:04;;;;;;;32.33;13.23;;;-0.10;99.70;;;;;;5070286;28;20954;-65
2022/02/13 03:53:31;;;;;;;24.53;12.10;;;-0.20;99.70;;;;;;5070830;28;20443;-65
2022/02/13 03:55:58;;;;;;;24.70;11.60;;;-0.30;99.70;;;;;;5070500;28;20463;-65
2022/02/13 03:58:24;;;;;;;25.90;12.50;;;0.20;99.70;;;;;;5070771;28;20465;-66
2022/02/13 04:00:52;;;;;;;27.60;12.10;;;0.10;99.70;;;;;;5070791;28;20471;-66
2022/02/13 04:03:18;;;;;;;27.07;12.50;;;-0.20;99.70;;;;;;5070892;28;20449;-66
2022/02/13 04:05:45;;;;;;;29.93;12.63;;;-0.10;99.70;;;;;;5070507;28;20462;-66
2022/02/13 04:08:13;;;;;;;31.40;12.13;;;-0.20;99.70;;;;;;5070622;28;20480;-65
2022/02/13 04:10:40;;;;;;;26.67;12.57;;;-0.50;99.70;;;;;;5070681;28;20490;-66
2022/02/13 04:13:07;;;;;;;29.60;12.50;;;-0.70;99.70;;;;;;5070788;28;20469;-65
2022/02/13 04:15:34;;;;;;;25.40;12.47;;;-0.80;99.70;;;;;;5070398;28;20473;-66
2022/02/13 04:18:00;;;;;;;30.80;12.63;;;-0.70;99.70;;;;;;5070243;28;20809;-65
2022/02/13 04:20:27;;;;;;;27.90;13.30;;;-0.80;99.70;;;;;;5070680;28;20457;-65
2022/02/13 04:22:54;;;;;;;28.23;12.80;;;-1.00;99.70;;;;;;5070600;28;20935;-66
2022/02/13 04:25:22;;;;;;;31.30;12.50;;;-1.20;99.70;;;;;;5070416;28;20442;-66
2022/02/13 04:27:49;;;;;;;29.43;13.07;;;-1.10;99.70;;;;;;5070468;28;20788;-64
2022/02/13 04:30:15;;;;;;;22.80;11.50;;;-1.10;99.70;;;;;;5070539;28;20482;-66
2022/02/13 04:32:42;;;;;;;24.40;11.23;;;-1.00;99.70;;;;;;5070442;28;20439;-67
2022/02/13 04:35:10;;;;;;;27.60;11.50;;;-0.90;99.70;;;;;;5070192;28;20462;-66
2022/02/13 04:37:36;;;;;;;28.60;11.50;;;-0.80;99.70;;;;;;5094275;22;20493;-66
2022/02/13 04:40:04;;;;;;;28.20;11.70;;;-0.70;99.70;;;;;;5090388;28;20433;-66
2022/02/13 04:42:32;;;;;;;24.43;11.53;;;-0.70;99.70;;;;;;5090471;28;20442;-66
2022/02/13 04:44:59;;;;;;;26.30;11.93;;;-0.50;99.70;;;;;;5090208;28;20536;-66
2022/02/13 04:47:26;;;;;;;24.17;11.83;;;-0.70;99.70;;;;;;5090449;28;20462;-66
2022/02/13 04:49:52;;;;;;;26.40;11.53;;;-0.70;99.70;;;;;;5090484;28;20480;-66
2022/02/13 04:52:19;;;;;;;30.57;12.00;;;-0.90;99.70;;;;;;5090581;28;20477;-65
2022/02/13 04:54:46;;;;;;;27.37;12.20;;;-1.20;99.70;;;;;;5090292;28;20457;-64
2022/02/13 04:57:12;;;;;;;25.07;12.63;;;-1.30;99.70;;;;;;5090654;28;20853;-65
2022/02/13 04:59:41;;;;;;;27.93;11.90;;;-1.10;99.70;;;;;;5090209;28;20445;-65
2022/02/13 05:02:08;;;;;;;24.80;11.23;;;-1.10;99.70;;;;;;5092694;28;20445;-65
2022/02/13 05:04:35;;;;;;;24.90;11.50;;;-1.00;99.70;;;;;;5094084;28;20454;-65
2022/02/13 05:07:01;;;;;;;25.50;11.57;;;-0.80;99.70;;;;;;5093675;28;20457;-65
2022/02/13 05:09:29;;;;;;;25.23;12.40;;;-0.60;99.70;;;;;;5093930;28;20485;-66
2022/02/13 05:11:56;;;;;;;23.07;11.00;;;-0.70;99.70;;;;;;5094027;28;20442;-65
2022/02/13 05:14:23;;;;;;;27.93;10.93;;;-0.70;99.70;;;;;;5094124;28;20481;-66
2022/02/13 05:16:51;;;;;;;23.10;11.57;;;-0.60;99.70;;;;;;5093203;28;20532;-65
2022/02/13 05:19:18;;;;;;;27.40;12.13;;;-0.70;99.70;;;;;;5093814;28;20926;-65
2022/02/13 05:21:45;;;;;;;26.67;11.17;;;-0.80;99.70;;;;;;5093848;28;20442;-65
2022/02/13 05:24:12;;;;;;;22.37;10.47;;;-0.70;99.70;;;;;;5093962;28;20442;-66
2022/02/13 05:26:39;;;;;;;23.83;10.70;;;-0.60;99.70;;;;;;5093706;28;20469;-65
2022/02/13 05:29:06;;;;;;;24.17;10.70;;;-0.70;99.70;;;;;;5093540;28;20476;-66
2022/02/13 05:31:33;;;;;;;31.33;11.70;;;-0.60;99.70;;;;;;5093740;28;20450;-65
2022/02/13 05:34:01;;;;;;;27.80;11.50;;;-0.70;99.70;;;;;;5093588;28;20445;-65
2022/02/13 05:36:30;;;;;;;23.60;11.20;;;-1.00;99.70;;;;;;5093071;28;20476;-66
2022/02/13 05:38:56;;;;;;;23.27;10.87;;;-0.90;99.70;;;;;;5093445;28;20533;-65
2022/02/13 05:41:23;;;;;;;24.60;10.67;;;-0.90;99.70;;;;;;5093480;28;20438;-65
2022/02/13 05:43:50;;;;;;;21.73;10.50;;;-0.90;99.70;;;;;;5093637;28;20477;-64
2022/02/13 05:46:17;;;;;;;20.57;9.93;;;-0.80;99.70;;;;;;5093134;28;20458;-65
2022/02/13 05:48:45;;;;;;;23.20;10.33;;;-0.70;99.70;;;;;;5093256;28;20929;-65
2022/02/13 05:51:14;;;;;;;31.43;12.20;;;-0.60;99.70;;;;;;5093275;28;20591;-64
2022/02/13 05:53:40;;;;;;;24.93;11.43;;;-0.70;99.70;;;;;;5093266;28;20442;-67
2022/02/13 05:56:08;;;;;;;25.07;10.83;;;-0.50;99.70;;;;;;5092908;28;20469;-65
2022/02/13 05:58:39;;;;;;;22.00;10.43;;;-0.30;99.70;;;;;;5093030;28;20478;-65
2022/02/13 06:01:05;;;;;;;29.53;11.90;;;-0.30;99.70;;;;;;5093056;28;20885;-65
2022/02/13 06:03:32;;;;;;;26.77;11.90;;;-0.10;99.70;;;;;;5093106;28;20844;-65
2022/02/13 06:05:59;;;;;;;28.73;12.40;;;0.20;99.70;;;;;;5092663;28;20468;-65
2022/02/13 06:08:27;;;;;;;29.23;11.10;;;0.00;99.70;;;;;;5092895;28;20447;-65
2022/02/13 06:10:54;;;;;;;27.90;12.37;;;0.00;99.70;;;;;;5092865;28;20834;-65
2022/02/13 06:13:21;;;;;;;24.90;11.03;;;-0.20;99.70;;;;;;5092317;28;20434;-66
2022/02/13 06:15:48;;;;;;;30.10;11.00;;;-0.20;99.70;;;;;;5092649;28;20929;-65
2022/02/13 06:18:15;;;;;;;22.20;11.10;;;-0.10;99.70;;;;;;5092314;28;20454;-65
2022/02/13 06:20:41;;;;;;;25.80;11.63;;;0.00;99.70;;;;;;5092606;28;20446;-66
2022/02/13 06:23:08;;;;;;;27.73;11.63;;;0.00;99.70;;;;;;5092632;28;20453;-65
2022/02/13 06:25:37;;;;;;;24.23;11.30;;;-0.20;99.70;;;;;;5092254;28;20442;-65
2022/02/13 06:28:04;;;;;;;26.53;12.00;;;-0.30;99.70;;;;;;5092466;28;20825;-65
2022/02/13 06:30:31;;;;;;;26.47;11.80;;;-0.50;99.70;;;;;;5092393;28;20475;-66
2022/02/13 06:32:59;;;;;;;28.10;11.70;;;-0.40;99.70;;;;;;5092593;28;20441;-67
2022/02/13 06:35:26;;;;;;;28.00;12.17;;;-0.50;99.70;;;;;;5092191;28;20453;-66
2022/02/13 06:37:53;;;;;;;23.77;11.70;;;-0.60;99.70;;;;;;5092095;28;20544;-65
2022/02/13 06:40:20;;;;;;;25.87;11.57;;;-0.60;99.70;;;;;;5092364;28;20618;-65
2022/02/13 06:42:48;;;;;;;27.43;11.10;;;-0.60;99.70;;;;;;5092271;28;20437;-65
2022/02/13 06:45:15;;;;;;;27.63;12.00;;;-0.50;99.70;;;;;;5092028;28;20434;-65
2022/02/13 06:47:42;;;;;;;22.77;10.60;;;-0.60;99.70;;;;;;5092139;28;20454;-65
2022/02/13 06:50:10;;;;;;;26.60;11.83;;;-0.60;99.70;;;;;;5091922;28;20481;-65
2022/02/13 06:52:37;;;;;;;27.93;11.77;;;-0.70;99.70;;;;;;5092056;28;20940;-66
2022/02/13 06:55:04;;;;;;;31.10;12.57;;;-0.60;99.70;;;;;;5091791;28;20446;-65
2022/02/13 06:57:31;;;;;;;26.30;11.70;;;-0.80;99.70;;;;;;5091877;28;20457;-65
2022/02/13 07:00:00;;;;;;;23.50;11.30;;;-0.90;99.70;;;;;;5092038;28;20933;-65
2022/02/13 07:02:26;;;;;;;27.33;11.50;;;-0.90;99.70;;;;;;5092088;28;20546;-65
2022/02/13 07:04:53;;;;;;;31.47;12.60;;;-1.00;99.70;;;;;;5091693;28;20898;-66
2022/02/13 07:07:20;;;;;;;23.23;10.80;;;-0.90;99.70;;;;;;5091780;28;20465;-65
2022/02/13 07:09:46;;;;;;;29.57;11.87;;;-0.60;99.70;;;;;;5091732;28;20903;-66
2022/02/13 07:12:13;;;;;;;28.57;11.97;;;-0.80;99.70;;;;;;5091900;28;20446;-65
2022/02/13 07:14:41;;;;;;;23.57;11.20;;;-0.80;99.70;;;;;;5091686;28;20866;-65
2022/02/13 07:17:09;;;;;;;26.47;12.00;;;-0.60;99.70;;;;;;5090975;28;20560;-65
2022/02/13 07:19:37;;;;;;;24.97;11.50;;;-0.20;99.70;;;;;;5091200;28;20442;-65
2022/02/13 07:22:05;;;;;;;30.07;11.37;;;-0.40;99.70;;;;;;5091488;28;20446;-65
2022/02/13 07:24:34;;;;;;;22.37;11.43;;;-0.20;99.70;;;;;;5090536;28;20445;-65
2022/02/13 07:27:00;;;;;;;24.07;11.00;;;0.00;99.70;;;;;;5090945;28;20466;-66
2022/02/13 07:29:27;;;;;;;26.27;11.23;;;0.00;99.70;;;;;;5091203;28;20441;-67
2022/02/13 07:31:54;;;;;;;27.33;13.00;;;-0.10;99.70;;;;;;5091325;28;20444;-65
2022/02/13 07:34:22;;;;;;;26.80;11.77;;;0.20;99.70;;;;;;5091479;28;20465;-65
2022/02/13 07:36:54;;;;;;;28.00;12.70;;;0.00;99.70;;;;;;5091035;28;20973;-66
2022/02/13 07:39:21;;;;;;;23.33;11.40;;;0.10;99.70;;;;;;5091263;28;20450;-66
2022/02/13 07:41:48;;;;;;;23.80;10.80;;;0.00;99.70;;;;;;5091451;28;20986;-66
2022/02/13 07:44:15;;;;;;;23.10;10.80;;;0.00;99.70;;;;;;5091309;28;20450;-66
2022/02/13 07:46:41;;;;;;;24.23;11.30;;;0.30;99.70;;;;;;5090968;28;20992;-66
2022/02/13 07:49:08;;;;;;;21.80;10.43;;;0.20;99.70;;;;;;5091144;28;20473;-66
2022/02/13 07:51:37;;;;;;;23.83;11.37;;;0.20;99.70;;;;;;5091146;28;20523;-66
2022/02/13 07:54:04;;;;;;;25.03;11.70;;;0.40;99.70;;;;;;5091239;28;20499;-65
2022/02/13 07:56:30;;;;;;;25.17;11.47;;;0.50;99.70;;;;;;5090899;28;20470;-66
2022/02/13 07:58:57;;;;;;;26.57;10.90;;;0.70;99.70;;;;;;5091171;28;20453;-67
2022/02/13 08:01:24;;;;;;;22.93;11.17;;;0.90;99.70;;;;;;5091090;28;20493;-66
2022/02/13 08:03:51;;;;;;;22.80;10.80;;;1.00;99.70;;;;;;5090953;28;20484;-66
2022/02/13 08:06:19;;;;;;;23.80;10.57;;;0.90;99.70;;;;;;5090722;28;20473;-66
2022/02/13 08:08:47;;;;;;;24.17;10.63;;;1.20;99.70;;;;;;5090970;28;20465;-67
2022/02/13 08:11:14;;;;;;;25.27;10.27;;;1.30;99.70;;;;;;5091086;28;20481;-66
2022/02/13 08:13:41;;;;;;;23.60;10.30;;;1.50;99.70;;;;;;5091132;28;20893;-66
2022/02/13 08:16:08;;;;;;;24.07;9.90;;;1.80;99.70;;;;;;5090330;28;20477;-66
2022/02/13 08:18:35;;;;;;;24.47;11.50;;;2.40;99.70;;;;;;5090948;28;20446;-67
2022/02/13 08:21:03;;;;;;;25.60;10.50;;;3.00;99.70;;;;;;5091107;28;20453;-66
2022/02/13 08:23:30;;;;;;;24.30;10.60;;;3.60;99.70;;;;;;5090945;28;20496;-66
2022/02/13 08:25:58;;;;;;;21.97;11.07;;;3.90;99.70;;;;;;5090541;28;20448;-66
2022/02/13 08:28:24;;;;;;;22.57;11.00;;;3.90;99.70;;;;;;5090841;28;20441;-66
2022/02/13 08:30:51;;;;;;;22.77;10.90;;;3.60;99.70;;;;;;5086536;28;20486;-66
2022/02/13 08:33:21;;;;;;;21.73;10.80;;;3.50;99.70;;;;;;5084545;28;20498;-67
2022/02/13 08:35:48;;;;;;;21.00;10.40;;;3.20;99.70;;;;;;5076533;28;20536;-66
2022/02/13 08:38:15;;;;;;;23.80;11.73;;;2.90;99.70;;;;;;5089578;28;20978;-66
2022/02/13 08:40:41;;;;;;;20.70;10.80;;;2.90;99.70;;;;;;5093984;28;20460;-66
2022/02/13 08:43:09;;;;;;;22.63;10.83;;;2.80;99.70;;;;;;5094530;28;20453;-66
2022/02/13 08:45:38;;;;;;;25.00;10.97;;;2.90;99.70;;;;;;5095147;28;20441;-66
2022/02/13 08:48:05;;;;;;;19.90;10.20;;;2.80;99.70;;;;;;5093334;28;20437;-66
2022/02/13 08:50:32;;;;;;;20.13;9.90;;;2.60;99.70;;;;;;5093958;28;20488;-65
2022/02/13 08:53:00;;;;;;;17.53;9.53;;;2.80;99.70;;;;;;5093462;28;20466;-67
2022/02/13 08:55:27;;;;;;;23.30;11.13;;;2.60;99.70;;;;;;5093529;28;20838;-67
2022/02/13 08:57:54;;;;;;;18.73;9.37;;;2.70;99.70;;;;;;5093974;28;20830;-66
2022/02/13 09:00:22;;;;;;;20.97;9.60;;;2.70;99.70;;;;;;5094031;28;20826;-67
2022/02/13 09:02:48;;;;;;;22.97;10.93;;;2.80;99.70;;;;;;5093693;28;20441;-67
2022/02/13 09:05:17;;;;;;;21.83;10.27;;;2.80;99.70;;;;;;5093991;28;20449;-66
2022/02/13 09:07:44;;;;;;;24.07;9.97;;;2.90;99.70;;;;;;5091778;28;20466;-69
2022/02/13 09:10:14;;;;;;;21.80;10.37;;;3.00;99.70;;;;;;5089473;28;21058;-68
2022/02/13 09:12:41;;;;;;;22.33;9.83;;;3.00;99.70;;;;;;5089250;28;20457;-67
2022/02/13 09:15:09;;;;;;;21.53;10.07;;;3.20;99.70;;;;;;5090301;28;20830;-67
2022/02/13 09:17:37;;;;;;;19.60;9.87;;;3.90;99.70;;;;;;5085675;28;20482;-66
2022/02/13 09:20:06;;;;;;;20.63;9.47;;;4.70;99.70;;;;;;5087920;28;20465;-67
2022/02/13 09:22:33;;;;;;;19.17;9.03;;;5.30;99.70;;;;;;5093496;28;20438;-66
2022/02/13 09:25:00;;;;;;;21.77;9.90;;;5.90;99.70;;;;;;5091379;28;20458;-66
2022/02/13 09:27:26;;;;;;;18.50;9.67;;;6.60;99.70;;;;;;5081590;28;20463;-67
2022/02/13 09:29:54;;;;;;;15.33;7.97;;;7.30;99.70;;;;;;5093422;28;20468;-66
2022/02/13 09:32:21;;;;;;;16.43;8.70;;;7.30;99.70;;;;;;5093518;28;20555;-67
2022/02/13 09:34:49;;;;;;;16.13;8.07;;;7.70;99.70;;;;;;5093433;28;20437;-67
2022/02/13 09:37:16;;;;;;;23.63;8.97;;;8.30;99.70;;;;;;5093427;28;20841;-66
2022/02/13 09:39:43;;;;;;;21.67;10.57;;;8.60;99.70;;;;;;5093273;28;20460;-66
2022/02/13 09:42:11;;;;;;;19.93;10.53;;;8.80;99.70;;;;;;5111932;28;20445;-67
2022/02/13 09:44:38;;;;;;;19.80;9.27;;;9.20;99.70;;;;;;5087615;28;20449;-66
2022/02/13 09:47:06;;;;;;;20.60;9.20;;;9.30;99.70;;;;;;5092482;28;20476;-66
2022/02/13 09:49:33;;;;;;;17.93;9.87;;;9.80;99.70;;;;;;5112530;28;20448;-66
2022/02/13 09:52:01;;;;;;;19.43;9.50;;;9.90;99.70;;;;;;5100158;28;20500;-67
2022/02/13 09:54:28;;;;;;;16.03;9.33;;;9.50;99.70;;;;;;5090392;28;20473;-66
2022/02/13 09:57:59;;;;;;;23.43;9.93;;;9.40;99.70;;;;;;5104937;28;20472;-66
2022/02/13 09:59:59;;;;;;;19.23;10.33;;;9.10;99.70;;;;;;5113196;28;20445;-66
2022/02/13 10:02:36;;;;;;;19.00;9.87;;;9.20;99.70;;;;;;5099937;28;20458;-66
2022/02/13 10:05:04;;;;;;;22.57;9.77;;;9.30;99.70;;;;;;5086085;28;20453;-66
2022/02/13 10:07:37;;;;;;;18.27;9.67;;;9.30;99.70;;;;;;5091282;28;20468;-67
2022/02/13 10:10:06;;;;;;;17.53;8.97;;;9.10;99.70;;;;;;5089116;28;20489;-67
2022/02/13 10:12:38;;;;;;;17.60;9.50;;;9.10;99.70;;;;;;5090883;28;20481;-66
2022/02/13 10:15:30;;;;;;;16.70;9.70;;;8.80;99.70;;;;;;5091432;28;20997;-67
2022/02/13 10:18:10;;;;;;;19.93;9.70;;;8.50;99.70;;;;;;5089127;28;20466;-66
2022/02/13 10:20:38;;;;;;;20.17;9.57;;;8.20;99.70;;;;;;5088804;28;20470;-67
2022/02/13 10:23:09;;;;;;;22.60;11.00;;;8.30;99.70;;;;;;5091426;28;20446;-68
2022/02/13 10:25:36;;;;;;;18.70;10.40;;;8.10;99.70;;;;;;5091975;28;20437;-66
2022/02/13 10:28:11;;;;;;;20.43;10.83;;;8.00;99.70;;;;;;5091798;28;20473;-66
2022/02/13 10:30:40;;;;;;;19.47;10.80;;;7.80;99.70;;;;;;5089465;28;20855;-66
2022/02/13 10:33:17;;;;;;;19.73;10.90;;;7.40;99.70;;;;;;5089666;28;20489;-67
2022/02/13 10:36:02;;;;;;;21.20;11.50;;;7.30;99.70;;;;;;5090044;28;20450;-66
2022/02/13 10:38:31;;;;;;;21.23;10.20;;;7.10;99.70;;;;;;5088338;28;20446;-67
2022/02/13 10:41:16;;;;;;;21.63;10.10;;;7.00;99.70;;;;;;5088753;28;20446;-67
2022/02/13 10:44:00;;;;;;;19.00;10.00;;;7.10;99.70;;;;;;5088300;28;20458;-66
2022/02/13 10:46:30;;;;;;;21.20;10.47;;;7.20;99.70;;;;;;5087490;28;20480;-67
2022/02/13 10:48:58;;;;;;;25.83;10.20;;;7.30;99.70;;;;;;5090952;28;20450;-67
2022/02/13 10:51:25;;;;;;;19.53;10.27;;;7.40;99.70;;;;;;5090959;28;20486;-67
2022/02/13 10:53:55;;;;;;;21.47;9.90;;;7.40;99.70;;;;;;5091670;28;20441;-68
2022/02/13 10:56:22;;;;;;;19.63;10.70;;;7.40;99.70;;;;;;5091197;28;20453;-68
2022/02/13 10:58:50;;;;;;;20.17;10.63;;;7.50;99.70;;;;;;5086192;28;20462;-67
2022/02/13 11:01:20;;;;;;;18.67;10.53;;;7.50;99.70;;;;;;5093474;28;20514;-67
2022/02/13 11:03:48;;;;;;;19.40;10.30;;;7.50;99.70;;;;;;5091412;28;20438;-67
2022/02/13 11:06:16;;;;;;;22.47;10.10;;;7.50;99.70;;;;;;5088397;28;20477;-67
2022/02/13 11:08:48;;;;;;;20.57;10.47;;;7.60;99.70;;;;;;5087050;28;20901;-67
2022/02/13 11:11:17;;;;;;;22.70;10.10;;;7.60;99.70;;;;;;5088969;28;21112;-66
2022/02/13 11:13:45;;;;;;;19.33;9.57;;;7.70;99.70;;;;;;5088357;28;20442;-65
2022/02/13 11:16:32;;;;;;;18.80;10.23;;;7.70;99.70;;;;;;5088134;28;20992;-67
2022/02/13 11:19:02;;;;;;;23.40;10.67;;;7.80;99.70;;;;;;5089810;28;20440;-66
2022/02/13 11:21:31;;;;;;;19.40;10.10;;;7.90;99.70;;;;;;5086666;28;20461;-66
2022/02/13 11:23:59;;;;;;;21.87;10.73;;;7.90;99.70;;;;;;5087286;28;20465;-67
2022/02/13 11:26:41;;;;;;;24.30;11.70;;;7.90;99.70;;;;;;5090642;28;20568;-67
2022/02/13 11:29:09;;;;;;;20.07;10.20;;;8.00;99.70;;;;;;5090869;28;20444;-67
2022/02/13 11:31:45;;;;;;;20.47;10.00;;;8.20;99.70;;;;;;5089177;28;20485;-67
2022/02/13 11:34:15;;;;;;;18.90;9.70;;;8.20;99.70;;;;;;5090491;28;20487;-66
2022/02/13 11:36:48;;;;;;;19.17;10.23;;;8.10;99.70;;;;;;5090993;28;20465;-66
2022/02/13 11:39:34;;;;;;;20.43;10.37;;;8.20;99.70;;;;;;5087086;28;20446;-67
2022/02/13 11:42:04;;;;;;;18.87;9.50;;;8.20;99.70;;;;;;5089394;28;20438;-67
2022/02/13 11:44:42;;;;;;;20.57;10.20;;;8.20;99.70;;;;;;5085595;28;20442;-66
2022/02/13 11:47:11;;;;;;;24.43;9.77;;;8.60;99.70;;;;;;5087729;28;20474;-67
2022/02/13 11:50:26;;;;;;;19.93;9.40;;;8.50;99.70;;;;;;5087423;28;20434;-69
2022/02/13 11:53:02;;;;;;;20.90;8.97;;;8.70;99.70;;;;;;5084477;28;20484;-68
2022/02/13 11:55:32;;;;;;;21.07;9.40;;;8.70;99.70;;;;;;5090069;28;20883;-67
2022/02/13 11:58:03;;;;;;;17.53;9.30;;;8.90;99.70;;;;;;5088732;28;20481;-67
2022/02/13 12:00:41;;;;;;;17.40;8.97;;;8.90;99.70;;;;;;5085235;28;20820;-67
2022/02/13 12:03:28;;;;;;;21.17;9.70;;;8.70;99.70;;;;;;5090150;28;20480;-68
2022/02/13 12:06:37;;;;;;;18.10;9.33;;;8.70;99.70;;;;;;5088034;28;20525;-67
2022/02/13 12:09:05;;;;;;;19.67;8.10;;;8.90;99.70;;;;;;5092040;28;20448;-67
2022/02/13 12:11:37;;;;;;;17.40;8.23;;;9.10;99.70;;;;;;5087833;28;20481;-67
2022/02/13 12:14:17;;;;;;;17.87;8.33;;;9.00;99.70;;;;;;5086621;28;20454;-67
2022/02/13 12:16:55;;;;;;;17.80;7.83;;;9.00;99.70;;;;;;5088420;28;20870;-68
2022/02/13 12:19:33;;;;;;;14.60;8.03;;;9.00;99.70;;;;;;5091202;28;20563;-68
2022/02/13 12:22:13;;;;;;;18.83;7.80;;;8.90;99.70;;;;;;5094212;28;20426;-67
2022/02/13 12:24:41;;;;;;;17.60;7.40;;;9.00;99.70;;;;;;5094180;28;20440;-68
2022/02/13 12:27:09;;;;;;;16.07;7.70;;;9.00;99.70;;;;;;5094366;28;20477;-67
2022/02/13 12:29:42;;;;;;;21.10;8.20;;;9.10;99.70;;;;;;5088537;28;20476;-67
2022/02/13 12:32:11;;;;;;;15.33;8.10;;;9.10;99.70;;;;;;5092711;28;20477;-68
2022/02/13 12:34:52;;;;;;;13.53;6.70;;;9.10;99.70;;;;;;5094187;28;20442;-68
2022/02/13 12:37:19;;;;;;;15.80;6.27;;;9.00;99.70;;;;;;5094252;28;20488;-68
2022/02/13 12:39:49;;;;;;;16.13;6.67;;;9.00;99.70;;;;;;5094045;28;20852;-67
2022/02/13 12:42:27;;;;;;;14.17;6.67;;;9.40;99.70;;;;;;5093942;28;20528;-67